Time;durP1;ratioP1;P1;durP2;ratioP2;P2;SDS_P1;SDS_P2;PMS_P1;PMS_P2;Temp;Humidity;BMP_temperature;BMP_pressure;BME280_temperature;BME280_humidity;BME280_pressure;Samples;Min_cycle;Max_cycle;Signal;HPM_P1;HPM_P2
2023/07/31 00:00:00;;;;;;;24.53;7.10;;;18.00;97.10;;;;;;5017493;28;20802;-63
2023/07/31 00:02:27;;;;;;;10.43;5.10;;;17.90;97.30;;;;;;5009087;28;21014;-63
2023/07/31 00:04:54;;;;;;;9.13;6.70;;;17.90;97.50;;;;;;5009938;28;20484;-63
2023/07/31 00:07:23;;;;;;;11.77;6.00;;;17.80;97.70;;;;;;5003807;28;20473;-63
2023/07/31 00:09:50;;;;;;;7.90;6.97;;;17.80;97.70;;;;;;5010313;28;21017;-65
2023/07/31 00:12:16;;;;;;;10.77;5.50;;;17.70;97.90;;;;;;5021096;28;20480;-63
2023/07/31 00:14:44;;;;;;;8.97;4.90;;;17.70;98.00;;;;;;5011522;28;20851;-63
2023/07/31 00:17:11;;;;;;;6.60;5.40;;;17.60;98.00;;;;;;5013377;28;20504;-63
2023/07/31 00:19:38;;;;;;;11.00;5.63;;;17.60;98.20;;;;;;5005310;28;20797;-63
2023/07/31 00:22:05;;;;;;;10.37;5.90;;;17.50;98.20;;;;;;5021687;28;20488;-63
2023/07/31 00:24:34;;;;;;;5.73;4.77;;;17.50;98.30;;;;;;5012608;28;20481;-63
2023/07/31 00:27:00;;;;;;;7.90;5.80;;;17.50;98.60;;;;;;5013637;28;20841;-63
2023/07/31 00:29:27;;;;;;;9.97;4.83;;;17.50;98.50;;;;;;5010860;28;20463;-63
2023/07/31 00:31:54;;;;;;;7.43;6.40;;;17.40;98.50;;;;;;5006728;28;20506;-63
2023/07/31 00:34:21;;;;;;;8.10;4.70;;;17.40;98.70;;;;;;5015704;28;21037;-62
2023/07/31 00:36:48;;;;;;;13.57;7.73;;;17.40;98.80;;;;;;5005027;28;21005;-63
2023/07/31 00:39:15;;;;;;;8.83;4.43;;;17.40;98.90;;;;;;5015402;28;20932;-63
2023/07/31 00:41:43;;;;;;;10.97;6.40;;;17.50;98.80;;;;;;5011930;28;20958;-63
2023/07/31 00:44:10;;;;;;;8.67;5.77;;;17.40;98.80;;;;;;5021083;28;20992;-62
2023/07/31 00:46:37;;;;;;;14.60;6.20;;;17.30;99.00;;;;;;4980810;28;20472;-62
2023/07/31 00:49:04;;;;;;;5.57;4.73;;;17.30;99.10;;;;;;5007684;28;20484;-63
2023/07/31 00:51:31;;;;;;;8.27;5.53;;;17.20;99.20;;;;;;5024920;28;20482;-61
2023/07/31 00:53:58;;;;;;;11.30;7.20;;;17.20;99.20;;;;;;5004195;28;20918;-62
2023/07/31 00:56:27;;;;;;;12.90;6.50;;;17.10;99.20;;;;;;5025999;28;20595;-62
2023/07/31 00:58:55;;;;;;;10.80;6.00;;;17.20;99.50;;;;;;5017900;28;20698;-64
2023/07/31 01:01:22;;;;;;;8.53;4.73;;;17.10;99.60;;;;;;5013045;28;20479;-63
2023/07/31 01:03:51;;;;;;;13.77;8.63;;;17.00;99.60;;;;;;5006980;28;20583;-63
2023/07/31 01:06:26;;;;;;;7.43;5.50;;;17.00;99.70;;;;;;5024763;28;20904;-64
2023/07/31 01:09:02;;;;;;;9.43;6.77;;;16.90;99.90;;;;;;5008594;28;20467;-63
2023/07/31 01:11:31;;;;;;;14.53;6.10;;;16.90;99.90;;;;;;5010035;28;20483;-63
2023/07/31 01:14:00;;;;;;;8.13;6.77;;;16.80;99.90;;;;;;5021221;28;20524;-63
2023/07/31 01:16:27;;;;;;;8.80;5.50;;;16.80;99.90;;;;;;5020696;28;20489;-63
2023/07/31 01:18:54;;;;;;;9.40;6.80;;;16.80;99.90;;;;;;5016577;28;20500;-63
2023/07/31 01:21:42;;;;;;;11.23;5.10;;;16.80;99.90;;;;;;5013675;28;20479;-63
2023/07/31 01:24:23;;;;;;;8.87;7.30;;;16.80;99.90;;;;;;4995025;28;20478;-62
2023/07/31 01:26:57;;;;;;;8.07;6.23;;;16.80;99.90;;;;;;5018531;28;20471;-62
2023/07/31 01:29:33;;;;;;;5.90;4.67;;;16.90;99.90;;;;;;5002648;28;20836;-62
2023/07/31 01:32:03;;;;;;;11.27;6.00;;;16.80;99.90;;;;;;5004310;28;20485;-63
2023/07/31 01:34:31;;;;;;;8.57;5.90;;;16.80;99.90;;;;;;5010254;28;20972;-63
2023/07/31 01:37:28;;;;;;;17.33;6.50;;;16.70;99.90;;;;;;5011808;28;20483;-63
2023/07/31 01:39:54;;;;;;;10.73;8.07;;;16.70;99.90;;;;;;5007521;28;20494;-63
2023/07/31 01:42:22;;;;;;;10.83;5.93;;;16.60;99.90;;;;;;5025363;28;20476;-62
2023/07/31 01:44:49;;;;;;;7.80;6.77;;;16.60;99.90;;;;;;5012012;28;20240;-63
2023/07/31 01:47:16;;;;;;;9.87;5.43;;;16.60;99.90;;;;;;5004148;28;21065;-63
2023/07/31 01:49:43;;;;;;;8.30;6.20;;;16.60;99.90;;;;;;5031427;28;21185;-63
2023/07/31 01:52:10;;;;;;;8.90;5.50;;;16.60;99.90;;;;;;5002427;28;20841;-63
2023/07/31 01:54:37;;;;;;;9.03;5.63;;;16.60;99.90;;;;;;5023020;28;20476;-64
2023/07/31 01:57:04;;;;;;;14.13;6.13;;;16.60;99.90;;;;;;5003112;28;21014;-62
2023/07/31 01:59:32;;;;;;;6.23;4.97;;;16.60;99.90;;;;;;5023144;28;20490;-63
2023/07/31 02:01:59;;;;;;;10.70;6.70;;;16.60;99.90;;;;;;5006015;28;20488;-63
2023/07/31 02:04:26;;;;;;;11.70;6.47;;;16.70;99.90;;;;;;5026299;28;20578;-63
2023/07/31 02:06:54;;;;;;;10.23;6.73;;;16.70;99.90;;;;;;5013469;28;20565;-63
2023/07/31 02:09:20;;;;;;;13.70;5.93;;;16.70;99.90;;;;;;5007357;28;21234;-63
2023/07/31 02:11:47;;;;;;;13.77;7.20;;;16.70;99.90;;;;;;5013550;28;20777;-63
2023/07/31 02:14:15;;;;;;;12.00;7.40;;;16.70;99.90;;;;;;5011364;28;21239;-62
2023/07/31 02:16:43;;;;;;;19.37;6.60;;;16.70;99.90;;;;;;5015907;28;21886;-65
2023/07/31 02:19:10;;;;;;;9.80;6.70;;;16.70;99.90;;;;;;5017436;28;21138;-63
2023/07/31 02:21:37;;;;;;;6.93;4.63;;;16.70;99.90;;;;;;5012872;28;21056;-64
2023/07/31 02:24:04;;;;;;;7.27;5.80;;;16.80;99.90;;;;;;5019831;28;20479;-65
2023/07/31 02:26:31;;;;;;;7.87;5.97;;;16.80;99.90;;;;;;5023770;28;20561;-64
2023/07/31 02:28:58;;;;;;;9.03;5.83;;;16.80;99.90;;;;;;5014140;28;20453;-63
2023/07/31 02:31:25;;;;;;;7.03;4.97;;;16.90;99.90;;;;;;5027462;28;20984;-63
2023/07/31 02:33:53;;;;;;;12.63;7.20;;;16.90;99.90;;;;;;5018360;28;20573;-63
2023/07/31 02:36:20;;;;;;;7.37;5.03;;;16.90;99.90;;;;;;5031267;28;20486;-63
2023/07/31 02:38:46;;;;;;;14.23;6.07;;;16.90;99.90;;;;;;5020125;28;20522;-64
2023/07/31 02:41:14;;;;;;;9.27;6.43;;;17.00;99.90;;;;;;5007104;28;21218;-63
2023/07/31 02:43:41;;;;;;;10.17;5.50;;;15.40;99.80;;;;;;5035846;28;20498;-64
2023/07/31 02:46:09;;;;;;;11.07;5.77;;;17.00;99.90;;;;;;5014254;28;20501;-63
2023/07/31 02:48:36;;;;;;;9.87;5.87;;;16.90;99.90;;;;;;5025168;28;20481;-64
2023/07/31 02:51:04;;;;;;;8.27;5.50;;;15.20;99.80;;;;;;5025354;28;20480;-64
2023/07/31 02:53:31;;;;;;;14.30;5.13;;;17.00;99.90;;;;;;5016307;28;20470;-64
2023/07/31 02:55:58;;;;;;;7.63;5.53;;;17.00;99.90;;;;;;5018615;28;20879;-63
2023/07/31 02:58:24;;;;;;;9.53;5.73;;;17.00;99.90;;;;;;5020909;28;20472;-63
2023/07/31 03:00:51;;;;;;;11.23;6.37;;;17.00;99.90;;;;;;5019401;28;20468;-63
2023/07/31 03:03:18;;;;;;;11.03;6.33;;;17.00;99.90;;;;;;5023328;28;20613;-62
2023/07/31 03:05:45;;;;;;;10.90;7.70;;;17.00;99.90;;;;;;5021303;28;20476;-63
2023/07/31 03:08:13;;;;;;;6.67;5.43;;;16.90;99.90;;;;;;5020901;28;20561;-63
2023/07/31 03:10:40;;;;;;;16.30;6.07;;;16.90;99.90;;;;;;5022284;28;21736;-62
2023/07/31 03:13:07;;;;;;;12.87;6.43;;;16.80;99.90;;;;;;5023836;28;20489;-62
2023/07/31 03:15:34;;;;;;;9.53;5.60;;;16.80;99.90;;;;;;5014383;28;20474;-63
2023/07/31 03:18:01;;;;;;;8.17;5.60;;;16.80;99.90;;;;;;5021918;28;20477;-62
2023/07/31 03:20:28;;;;;;;18.13;6.70;;;16.70;99.90;;;;;;5022993;28;21035;-62
2023/07/31 03:22:54;;;;;;;13.33;8.10;;;16.70;99.90;;;;;;5025989;28;20584;-62
2023/07/31 03:25:23;;;;;;;7.83;5.07;;;16.80;99.90;;;;;;5025310;28;20832;-63
2023/07/31 03:27:49;;;;;;;12.53;6.37;;;16.70;99.90;;;;;;5007377;28;20474;-65
2023/07/31 03:30:16;;;;;;;12.53;6.90;;;16.70;99.90;;;;;;5000680;28;20480;-63
2023/07/31 03:32:43;;;;;;;8.77;7.37;;;16.70;99.90;;;;;;5006773;28;20489;-65
2023/07/31 03:35:10;;;;;;;17.43;5.13;;;16.70;99.90;;;;;;5001381;28;20471;-64
2023/07/31 03:37:37;;;;;;;11.63;5.70;;;16.60;99.90;;;;;;5020540;28;20486;-63
2023/07/31 03:40:05;;;;;;;8.20;6.33;;;16.60;99.90;;;;;;5021239;28;20625;-62
2023/07/31 03:42:33;;;;;;;7.03;4.87;;;16.60;99.90;;;;;;5018739;28;20494;-63
2023/07/31 03:45:00;;;;;;;11.17;6.10;;;16.60;99.90;;;;;;5010722;28;20521;-63
2023/07/31 03:47:27;;;;;;;10.40;6.17;;;16.50;99.90;;;;;;4988831;28;20571;-63
2023/07/31 03:49:54;;;;;;;16.97;7.47;;;16.60;99.90;;;;;;4987748;28;20522;-62
2023/07/31 03:52:21;;;;;;;11.70;5.87;;;16.50;99.90;;;;;;4994797;28;20489;-64
2023/07/31 03:54:48;;;;;;;10.13;7.10;;;16.50;99.90;;;;;;5000023;28;20500;-63
2023/07/31 03:57:15;;;;;;;11.07;5.80;;;16.60;99.90;;;;;;5022196;28;20547;-63
2023/07/31 03:59:44;;;;;;;12.33;6.10;;;16.50;99.90;;;;;;5028635;28;20921;-64
2023/07/31 04:02:11;;;;;;;8.93;6.50;;;16.60;99.90;;;;;;4997582;28;20487;-65
2023/07/31 04:04:37;;;;;;;9.60;5.53;;;16.50;99.90;;;;;;5031741;28;20483;-62
2023/07/31 04:07:04;;;;;;;7.70;5.80;;;16.50;99.90;;;;;;5010556;28;20499;-64
2023/07/31 04:09:31;;;;;;;10.17;5.43;;;16.50;99.90;;;;;;5004656;28;20480;-61
2023/07/31 04:11:58;;;;;;;9.53;5.37;;;16.50;99.90;;;;;;5020581;28;20500;-63
2023/07/31 04:14:25;;;;;;;9.30;5.60;;;17.00;99.90;;;;;;5013301;28;20821;-64
2023/07/31 04:16:54;;;;;;;12.93;7.50;;;16.50;99.90;;;;;;5020351;28;20927;-62
2023/07/31 04:19:21;;;;;;;7.07;5.43;;;16.50;99.90;;;;;;5006198;28;20471;-63
2023/07/31 04:21:48;;;;;;;8.40;6.93;;;16.50;99.90;;;;;;5009690;28;20509;-63
2023/07/31 04:24:15;;;;;;;10.87;5.30;;;16.50;99.90;;;;;;5013479;28;20495;-66
2023/07/31 04:26:42;;;;;;;9.27;7.00;;;16.50;99.90;;;;;;5007704;28;20500;-64
2023/07/31 04:29:09;;;;;;;11.40;6.20;;;16.50;99.90;;;;;;5016240;28;20488;-63
2023/07/31 04:31:37;;;;;;;10.73;5.67;;;16.60;99.90;;;;;;5027230;28;20487;-63
2023/07/31 04:34:06;;;;;;;12.50;7.30;;;16.60;99.90;;;;;;5020913;28;20483;-63
2023/07/31 04:36:33;;;;;;;8.30;5.83;;;16.60;99.90;;;;;;5020270;28;20908;-64
2023/07/31 04:39:01;;;;;;;9.70;5.53;;;16.70;99.90;;;;;;4993189;28;20508;-64
2023/07/31 04:41:27;;;;;;;9.30;5.00;;;16.60;99.90;;;;;;5011208;28;20478;-63
2023/07/31 04:43:54;;;;;;;14.00;7.23;;;16.70;99.90;;;;;;4995776;28;20478;-63
2023/07/31 04:46:22;;;;;;;13.27;5.97;;;16.70;99.90;;;;;;5017622;28;20524;-65
2023/07/31 04:48:49;;;;;;;13.83;7.10;;;16.70;99.90;;;;;;5009255;28;20594;-66
2023/07/31 04:51:17;;;;;;;10.50;5.10;;;16.70;99.90;;;;;;5013736;28;20476;-65
2023/07/31 04:53:44;;;;;;;7.33;5.70;;;16.70;99.90;;;;;;5015975;28;20862;-65
2023/07/31 04:56:11;;;;;;;13.30;5.97;;;16.70;99.90;;;;;;5016733;28;20480;-64
2023/07/31 04:58:38;;;;;;;7.70;5.73;;;16.70;99.90;;;;;;5016969;28;20480;-64
2023/07/31 05:01:05;;;;;;;10.97;4.97;;;16.80;99.90;;;;;;5015396;28;20578;-64
2023/07/31 05:03:32;;;;;;;6.40;4.60;;;16.90;99.90;;;;;;5024197;28;21007;-62
2023/07/31 05:05:58;;;;;;;9.30;5.60;;;17.00;99.90;;;;;;5013069;28;20591;-63
2023/07/31 05:08:27;;;;;;;18.00;7.33;;;17.00;99.90;;;;;;5016893;28;21026;-66
2023/07/31 05:10:53;;;;;;;8.30;5.03;;;17.00;99.90;;;;;;5028577;28;20566;-64
2023/07/31 05:13:20;;;;;;;9.87;5.07;;;17.00;99.90;;;;;;5011978;28;20498;-64
2023/07/31 05:15:49;;;;;;;7.47;6.43;;;17.00;99.90;;;;;;5020848;28;20511;-62
2023/07/31 05:18:16;;;;;;;10.33;5.93;;;17.00;99.90;;;;;;5017952;28;21013;-63
2023/07/31 05:20:43;;;;;;;6.93;5.10;;;17.00;99.90;;;;;;5015894;28;20578;-64
2023/07/31 05:23:10;;;;;;;6.63;5.30;;;17.10;99.90;;;;;;5011953;28;20633;-64
2023/07/31 05:25:39;;;;;;;8.03;5.07;;;17.10;99.90;;;;;;5014322;28;20850;-65
2023/07/31 05:28:05;;;;;;;9.77;5.73;;;17.20;99.90;;;;;;5027165;28;20798;-63
2023/07/31 05:30:32;;;;;;;6.43;4.47;;;17.20;99.90;;;;;;5004149;28;21027;-64
2023/07/31 05:32:59;;;;;;;8.07;6.30;;;17.20;99.90;;;;;;5002244;28;20488;-65
2023/07/31 05:35:26;;;;;;;6.13;5.00;;;17.20;99.90;;;;;;5009586;28;20711;-64
2023/07/31 05:37:53;;;;;;;8.70;6.10;;;17.20;99.90;;;;;;5026737;28;20493;-63
2023/07/31 05:40:20;;;;;;;11.23;4.80;;;17.20;99.90;;;;;;5021147;28;20995;-63
2023/07/31 05:42:48;;;;;;;10.17;7.10;;;17.20;99.90;;;;;;5013123;28;20490;-63
2023/07/31 05:45:15;;;;;;;12.30;6.63;;;17.20;99.90;;;;;;5022528;28;20482;-63
2023/07/31 05:47:42;;;;;;;7.53;5.10;;;17.30;99.90;;;;;;5023573;28;20480;-64
2023/07/31 05:50:09;;;;;;;12.50;5.67;;;17.20;99.90;;;;;;5000240;28;20550;-62
2023/07/31 05:52:36;;;;;;;10.83;5.43;;;17.30;99.90;;;;;;5028978;28;21012;-62
2023/07/31 05:55:03;;;;;;;8.47;4.83;;;17.30;99.90;;;;;;5013431;28;20836;-63
2023/07/31 05:57:30;;;;;;;13.27;4.70;;;17.40;99.90;;;;;;5016035;28;20484;-63
2023/07/31 05:59:59;;;;;;;6.67;5.50;;;17.40;99.90;;;;;;5012749;28;20475;-64
2023/07/31 06:02:25;;;;;;;9.33;4.63;;;17.50;99.90;;;;;;5018505;28;20468;-63
2023/07/31 06:04:53;;;;;;;8.37;6.17;;;17.50;99.90;;;;;;5022205;28;20525;-63
2023/07/31 06:07:20;;;;;;;7.37;4.70;;;17.60;99.90;;;;;;5026285;28;20472;-62
2023/07/31 06:09:47;;;;;;;7.73;5.80;;;17.70;99.90;;;;;;5014244;28;20535;-62
2023/07/31 06:12:14;;;;;;;9.07;4.43;;;17.60;99.90;;;;;;5014875;28;21298;-62
2023/07/31 06:14:41;;;;;;;9.17;4.47;;;17.70;99.90;;;;;;5017510;28;20574;-62
2023/07/31 06:17:09;;;;;;;7.70;5.17;;;17.60;99.90;;;;;;5010683;28;20476;-62
2023/07/31 06:19:36;;;;;;;9.27;4.70;;;17.70;99.90;;;;;;5033665;28;20858;-64
2023/07/31 06:22:02;;;;;;;7.07;5.20;;;17.80;99.90;;;;;;5023842;28;20516;-62
2023/07/31 06:24:30;;;;;;;15.53;6.43;;;17.80;99.90;;;;;;5012429;28;20863;-62
2023/07/31 06:26:57;;;;;;;6.20;5.27;;;17.80;99.90;;;;;;5016141;28;20859;-62
2023/07/31 06:29:24;;;;;;;5.63;4.70;;;17.90;99.90;;;;;;5024043;28;20498;-63
2023/07/31 06:31:51;;;;;;;7.90;5.90;;;17.80;99.90;;;;;;5010340;28;20855;-62
2023/07/31 06:34:19;;;;;;;17.80;4.70;;;17.90;99.90;;;;;;5022039;28;20469;-62
2023/07/31 06:36:46;;;;;;;15.23;7.17;;;18.00;99.90;;;;;;5021988;28;20487;-63
2023/07/31 06:39:13;;;;;;;7.33;4.20;;;18.10;99.90;;;;;;5021779;28;20484;-62
2023/07/31 06:41:40;;;;;;;18.23;5.50;;;18.20;99.90;;;;;;5020284;28;21092;-63
2023/07/31 06:44:07;;;;;;;5.60;4.83;;;18.30;99.90;;;;;;5018786;28;20502;-63
2023/07/31 06:46:34;;;;;;;7.53;5.40;;;18.40;99.90;;;;;;5009571;28;20480;-62
2023/07/31 06:49:01;;;;;;;9.20;5.50;;;18.50;99.90;;;;;;5012215;28;20488;-62
2023/07/31 06:51:31;;;;;;;8.30;5.90;;;18.40;99.90;;;;;;5015571;28;20472;-63
2023/07/31 06:53:58;;;;;;;9.70;5.30;;;18.30;99.90;;;;;;5030782;28;20517;-63
2023/07/31 06:56:26;;;;;;;12.57;5.57;;;18.30;99.90;;;;;;5017524;28;20490;-65
2023/07/31 06:58:52;;;;;;;7.40;6.10;;;18.40;99.90;;;;;;5022395;28;20488;-62
2023/07/31 07:01:19;;;;;;;10.70;5.93;;;18.50;99.90;;;;;;5027811;28;20483;-62
2023/07/31 07:03:46;;;;;;;14.47;6.97;;;18.50;99.90;;;;;;5025115;28;20479;-62
2023/07/31 07:06:13;;;;;;;9.10;4.87;;;18.50;99.90;;;;;;5024030;28;20847;-62
2023/07/31 07:08:41;;;;;;;7.17;5.37;;;18.60;99.90;;;;;;5019521;28;20566;-64
2023/07/31 07:11:08;;;;;;;6.57;5.83;;;18.70;99.90;;;;;;5017048;28;20493;-63
2023/07/31 07:13:35;;;;;;;11.17;5.50;;;18.80;99.90;;;;;;5022428;28;20470;-62
2023/07/31 07:16:02;;;;;;;6.30;5.23;;;18.80;99.90;;;;;;5006426;28;20907;-62
2023/07/31 07:18:29;;;;;;;10.53;5.30;;;18.80;99.90;;;;;;5017343;28;20560;-65
2023/07/31 07:20:57;;;;;;;9.70;7.60;;;18.90;99.90;;;;;;5008412;28;20487;-63
2023/07/31 07:23:25;;;;;;;11.60;4.43;;;18.90;99.90;;;;;;5004032;28;20479;-62
2023/07/31 07:25:53;;;;;;;9.33;6.43;;;18.90;99.90;;;;;;5019314;28;20509;-64
2023/07/31 07:28:20;;;;;;;9.57;5.03;;;18.90;99.90;;;;;;4981147;28;20827;-64
2023/07/31 07:30:52;;;;;;;6.80;5.00;;;18.80;99.90;;;;;;5007790;28;21037;-63
2023/07/31 07:33:19;;;;;;;5.43;4.40;;;19.00;99.90;;;;;;5009034;28;20501;-64
2023/07/31 07:35:46;;;;;;;14.77;7.17;;;19.00;99.90;;;;;;5003632;28;20486;-64
2023/07/31 07:38:14;;;;;;;7.10;4.50;;;18.90;99.90;;;;;;5000269;28;20586;-63
2023/07/31 07:40:41;;;;;;;7.53;5.47;;;18.90;99.90;;;;;;5006163;28;20898;-64
2023/07/31 07:43:09;;;;;;;10.83;5.60;;;18.80;99.90;;;;;;5009483;28;20488;-65
2023/07/31 07:45:36;;;;;;;8.33;5.83;;;18.80;99.90;;;;;;5005239;28;20479;-64
2023/07/31 07:48:03;;;;;;;9.87;5.40;;;18.90;99.90;;;;;;5011711;28;20489;-65
2023/07/31 07:50:30;;;;;;;14.60;5.60;;;19.00;99.90;;;;;;5021205;28;20457;-63
2023/07/31 07:52:56;;;;;;;10.73;6.43;;;19.20;99.90;;;;;;4987702;28;20484;-64
2023/07/31 07:55:23;;;;;;;10.80;5.30;;;19.40;99.90;;;;;;5032645;28;20446;-63
2023/07/31 07:57:50;;;;;;;8.50;5.50;;;19.40;99.90;;;;;;5017213;28;20581;-64
2023/07/31 08:00:19;;;;;;;10.40;4.10;;;19.80;99.90;;;;;;5020454;28;20486;-65
2023/07/31 08:02:46;;;;;;;7.33;5.13;;;20.00;99.90;;;;;;5020069;28;20477;-64
2023/07/31 08:05:13;;;;;;;9.77;5.27;;;20.20;99.90;;;;;;5023024;28;20496;-67
2023/07/31 08:07:39;;;;;;;11.57;5.23;;;20.40;99.90;;;;;;5000250;28;21526;-63
2023/07/31 08:10:07;;;;;;;7.47;4.93;;;20.70;99.90;;;;;;5025559;28;20834;-64
2023/07/31 08:12:34;;;;;;;6.73;4.97;;;20.90;99.90;;;;;;5006093;28;20539;-65
2023/07/31 08:15:01;;;;;;;7.03;4.53;;;20.90;99.00;;;;;;5033477;28;20543;-65
2023/07/31 08:17:29;;;;;;;5.20;4.70;;;20.90;99.00;;;;;;5007501;28;20589;-64
2023/07/31 08:19:58;;;;;;;6.43;4.70;;;21.00;99.00;;;;;;5032978;28;20475;-64
2023/07/31 08:22:25;;;;;;;6.83;4.53;;;20.90;99.30;;;;;;5004257;28;20750;-66
2023/07/31 08:24:51;;;;;;;10.30;5.87;;;21.00;99.70;;;;;;4997618;28;20458;-64
2023/07/31 08:27:18;;;;;;;5.30;3.67;;;20.70;99.60;;;;;;5031970;28;20571;-65
2023/07/31 08:29:45;;;;;;;6.40;5.50;;;20.60;98.80;;;;;;5010348;28;21048;-65
2023/07/31 08:32:12;;;;;;;6.23;4.87;;;20.40;99.60;;;;;;5028942;28;20489;-64
2023/07/31 08:34:41;;;;;;;7.50;5.10;;;20.40;99.70;;;;;;5020023;28;21010;-63
2023/07/31 08:37:08;;;;;;;9.70;5.57;;;20.30;99.00;;;;;;5002967;28;20602;-65
2023/07/31 08:39:35;;;;;;;9.10;4.73;;;20.30;99.10;;;;;;5022909;28;20497;-64
2023/07/31 08:42:02;;;;;;;9.73;5.27;;;20.30;99.90;;;;;;5022594;28;20532;-64
2023/07/31 08:44:31;;;;;;;5.20;4.70;;;20.30;99.60;;;;;;4995085;28;20893;-64
2023/07/31 08:46:58;;;;;;;9.50;5.80;;;20.30;99.70;;;;;;5008829;28;20447;-64
2023/07/31 08:49:26;;;;;;;9.67;4.93;;;20.30;99.90;;;;;;5013967;28;20873;-63
2023/07/31 08:51:57;;;;;;;8.10;6.03;;;20.20;99.70;;;;;;5013058;28;20458;-63
2023/07/31 08:54:24;;;;;;;11.03;5.70;;;20.40;99.90;;;;;;5002164;28;20513;-66
2023/07/31 08:56:52;;;;;;;16.67;6.93;;;20.20;99.90;;;;;;5024800;28;20480;-64
2023/07/31 08:59:21;;;;;;;4.60;4.10;;;20.30;99.90;;;;;;5012042;28;20481;-64
2023/07/31 09:01:53;;;;;;;9.40;6.90;;;20.50;99.90;;;;;;5007596;28;20465;-64
2023/07/31 09:04:22;;;;;;;6.00;4.43;;;20.70;99.90;;;;;;5007135;28;20471;-62
2023/07/31 09:06:49;;;;;;;8.83;6.67;;;20.80;99.90;;;;;;5020842;28;20498;-63
2023/07/31 09:09:17;;;;;;;6.67;5.17;;;20.90;99.90;;;;;;5013791;28;21286;-63
2023/07/31 09:11:44;;;;;;;14.53;5.63;;;21.00;99.90;;;;;;5005698;28;20548;-62
2023/07/31 09:14:12;;;;;;;8.10;4.70;;;20.80;98.80;;;;;;5013205;28;20660;-64
2023/07/31 09:16:53;;;;;;;8.73;4.77;;;21.00;99.80;;;;;;5011287;28;20486;-62
2023/07/31 09:19:27;;;;;;;9.33;5.60;;;21.10;99.90;;;;;;5020993;28;20465;-63
2023/07/31 09:21:54;;;;;;;6.97;5.17;;;21.30;99.90;;;;;;5023411;28;20483;-64
2023/07/31 09:24:31;;;;;;;12.40;4.60;;;21.50;98.50;;;;;;5021532;28;20754;-63
2023/07/31 09:27:00;;;;;;;9.57;5.83;;;21.40;98.20;;;;;;5011570;28;20678;-63
2023/07/31 09:29:29;;;;;;;7.23;4.17;;;21.50;98.10;;;;;;5024611;28;20481;-64
2023/07/31 09:31:57;;;;;;;11.80;6.20;;;21.60;98.70;;;;;;5018800;28;20521;-64
2023/07/31 09:34:39;;;;;;;6.40;3.97;;;21.70;99.20;;;;;;5012760;28;20469;-63
2023/07/31 09:37:06;;;;;;;9.10;5.07;;;21.80;98.80;;;;;;5014486;28;20463;-62
2023/07/31 09:39:47;;;;;;;6.83;3.83;;;21.90;99.10;;;;;;5026262;28;20539;-65
2023/07/31 09:42:13;;;;;;;12.80;5.40;;;22.00;98.50;;;;;;5007838;28;20863;-63
2023/07/31 09:44:41;;;;;;;7.30;5.37;;;22.30;99.90;;;;;;5024861;28;20488;-65
2023/07/31 09:47:23;;;;;;;7.60;5.50;;;22.40;99.10;;;;;;5014224;28;20495;-63
2023/07/31 09:49:53;;;;;;;9.17;6.53;;;22.30;98.10;;;;;;5028793;28;20478;-67
2023/07/31 09:52:19;;;;;;;11.43;4.70;;;22.10;97.40;;;;;;5008595;28;20578;-62
2023/07/31 09:54:48;;;;;;;9.00;5.80;;;22.30;98.10;;;;;;5023465;28;20483;-63
2023/07/31 09:57:17;;;;;;;9.60;5.90;;;22.40;97.70;;;;;;5011349;28;20593;-63
2023/07/31 09:59:44;;;;;;;9.53;6.87;;;22.20;97.30;;;;;;5013377;28;20598;-63
2023/07/31 10:02:16;;;;;;;9.43;5.27;;;22.20;97.50;;;;;;5027642;28;21094;-64
2023/07/31 10:04:46;;;;;;;7.50;6.00;;;22.00;97.40;;;;;;5028108;28;20956;-63
2023/07/31 10:07:13;;;;;;;7.00;5.03;;;22.00;97.70;;;;;;5018194;28;20463;-64
2023/07/31 10:09:40;;;;;;;9.30;5.00;;;21.70;97.20;;;;;;5018091;28;20460;-62
2023/07/31 10:12:11;;;;;;;8.70;5.80;;;21.70;97.90;;;;;;5014209;28;20501;-62
2023/07/31 10:14:39;;;;;;;8.57;5.00;;;21.80;98.30;;;;;;5019422;28;20541;-63
2023/07/31 10:17:07;;;;;;;8.80;5.77;;;21.80;98.20;;;;;;4992292;28;20566;-63
2023/07/31 10:19:35;;;;;;;10.07;5.73;;;21.80;98.10;;;;;;5012565;28;21115;-63
2023/07/31 10:22:04;;;;;;;13.60;5.90;;;21.80;97.00;;;;;;5013229;28;20445;-60
2023/07/31 10:24:32;;;;;;;6.83;5.30;;;21.90;97.30;;;;;;5033123;28;20478;-65
2023/07/31 10:27:00;;;;;;;8.87;5.70;;;21.90;96.70;;;;;;5012954;28;20473;-64
2023/07/31 10:29:30;;;;;;;10.60;5.80;;;22.10;97.00;;;;;;5019224;28;20486;-63
2023/07/31 10:31:59;;;;;;;11.27;6.60;;;22.20;97.90;;;;;;5002021;28;20472;-61
2023/07/31 10:34:26;;;;;;;5.93;4.70;;;22.30;97.20;;;;;;5005692;28;20484;-64
2023/07/31 10:37:20;;;;;;;9.10;7.00;;;22.20;97.40;;;;;;4998852;28;20808;-64
2023/07/31 10:39:57;;;;;;;7.27;6.00;;;21.90;97.20;;;;;;5011850;28;20459;-63
2023/07/31 10:42:29;;;;;;;13.43;6.20;;;22.00;97.40;;;;;;5023535;28;20758;-62
2023/07/31 10:45:00;;;;;;;9.50;5.30;;;22.00;97.60;;;;;;5013687;28;20454;-64
2023/07/31 10:47:27;;;;;;;9.93;5.10;;;22.10;97.00;;;;;;5025780;28;20472;-62
2023/07/31 10:50:11;;;;;;;11.10;5.53;;;22.20;96.60;;;;;;5024454;28;20469;-62
2023/07/31 10:52:38;;;;;;;6.30;5.20;;;22.30;97.50;;;;;;5015664;28;20850;-61
2023/07/31 10:55:25;;;;;;;12.23;5.30;;;22.40;96.10;;;;;;5029482;28;21116;-61
2023/07/31 10:57:53;;;;;;;13.50;6.33;;;22.70;96.90;;;;;;5013765;28;20577;-63
2023/07/31 11:00:23;;;;;;;9.40;5.10;;;22.60;97.20;;;;;;5016487;28;20492;-64
2023/07/31 11:03:02;;;;;;;14.87;6.40;;;22.60;97.60;;;;;;5008758;28;20766;-64
2023/07/31 11:05:53;;;;;;;13.57;7.17;;;22.50;97.80;;;;;;5016386;28;20462;-62
2023/07/31 11:08:22;;;;;;;8.63;4.37;;;22.10;96.70;;;;;;5006394;28;21460;-61
2023/07/31 11:10:50;;;;;;;15.37;6.70;;;22.20;97.80;;;;;;5029056;28;21114;-64
2023/07/31 11:13:18;;;;;;;10.17;5.50;;;22.50;98.00;;;;;;5030158;28;20482;-62
2023/07/31 11:15:46;;;;;;;9.93;6.20;;;22.60;97.70;;;;;;5018868;28;21011;-65
2023/07/31 11:18:13;;;;;;;9.50;4.93;;;22.90;99.10;;;;;;5019717;28;20456;-62
2023/07/31 11:20:40;;;;;;;6.57;4.77;;;23.10;97.50;;;;;;5020580;28;20991;-65
2023/07/31 11:23:09;;;;;;;8.03;5.57;;;23.20;97.50;;;;;;5001733;28;20478;-62
2023/07/31 11:25:37;;;;;;;8.70;4.50;;;23.40;98.20;;;;;;5025954;28;20797;-63
2023/07/31 11:28:05;;;;;;;8.40;5.60;;;23.60;97.70;;;;;;5015392;28;20813;-61
2023/07/31 11:30:32;;;;;;;9.03;4.23;;;23.30;96.00;;;;;;5012448;28;20546;-62
2023/07/31 11:33:03;;;;;;;9.20;6.97;;;23.40;96.70;;;;;;5007786;28;20552;-61
2023/07/31 11:35:31;;;;;;;7.13;4.83;;;23.40;96.90;;;;;;5014138;28;21220;-61
2023/07/31 11:37:58;;;;;;;9.20;5.37;;;23.50;96.30;;;;;;5015152;28;20457;-64
2023/07/31 11:40:28;;;;;;;6.80;5.40;;;23.40;96.40;;;;;;5017934;28;20986;-63
2023/07/31 11:42:59;;;;;;;9.97;6.93;;;23.50;96.20;;;;;;5013566;28;20839;-63
2023/07/31 11:45:30;;;;;;;10.93;5.03;;;23.10;96.40;;;;;;5029406;28;20509;-62
2023/07/31 11:47:57;;;;;;;8.87;5.63;;;23.10;96.60;;;;;;5005105;28;20506;-65
2023/07/31 11:50:26;;;;;;;9.30;5.23;;;23.20;96.30;;;;;;5022991;28;20485;-64
2023/07/31 11:52:57;;;;;;;10.00;6.90;;;23.30;96.90;;;;;;4991205;28;20486;-62
2023/07/31 11:55:24;;;;;;;7.63;5.63;;;23.30;96.30;;;;;;5014716;28;20466;-66
2023/07/31 11:57:53;;;;;;;9.00;6.83;;;23.30;96.30;;;;;;5020142;28;20813;-62
2023/07/31 12:00:20;;;;;;;11.33;5.20;;;23.10;95.60;;;;;;5007684;28;20458;-63
2023/07/31 12:02:47;;;;;;;7.33;6.47;;;23.00;95.20;;;;;;5001024;28;20943;-63
2023/07/31 12:05:15;;;;;;;9.37;5.37;;;22.80;95.50;;;;;;5001374;28;20498;-64
2023/07/31 12:07:47;;;;;;;22.47;5.90;;;22.90;95.60;;;;;;4996602;28;20504;-64
2023/07/31 12:10:24;;;;;;;9.80;5.10;;;23.00;96.60;;;;;;5020585;28;20566;-66
2023/07/31 12:12:58;;;;;;;11.00;7.37;;;23.00;96.00;;;;;;4996112;28;20460;-64
2023/07/31 12:15:31;;;;;;;8.30;5.57;;;23.00;95.80;;;;;;5006363;28;20487;-62
2023/07/31 12:18:01;;;;;;;10.07;7.23;;;22.90;95.60;;;;;;5002402;28;20501;-64
2023/07/31 12:20:30;;;;;;;7.10;5.37;;;23.00;96.00;;;;;;5000757;28;20514;-63
2023/07/31 12:22:59;;;;;;;6.73;6.00;;;23.00;96.50;;;;;;5011879;28;20560;-63
2023/07/31 12:25:30;;;;;;;6.57;5.90;;;23.00;96.00;;;;;;5012163;28;20576;-62
2023/07/31 12:27:58;;;;;;;11.47;6.60;;;22.90;95.80;;;;;;5000239;28;21033;-63
2023/07/31 12:30:28;;;;;;;7.33;4.80;;;23.10;96.80;;;;;;5015500;28;20447;-66
2023/07/31 12:32:55;;;;;;;6.87;6.10;;;23.40;96.20;;;;;;4988227;28;20481;-63
2023/07/31 12:35:22;;;;;;;8.63;5.10;;;23.50;96.60;;;;;;5015253;28;21352;-64
2023/07/31 12:37:49;;;;;;;6.43;5.80;;;23.70;95.60;;;;;;5005590;28;20852;-63
2023/07/31 12:40:17;;;;;;;5.40;4.90;;;23.90;95.80;;;;;;5008388;28;20604;-63
2023/07/31 12:42:44;;;;;;;6.73;4.83;;;23.80;94.70;;;;;;5005320;28;20454;-64
2023/07/31 12:45:11;;;;;;;7.23;4.27;;;23.70;94.40;;;;;;5016175;28;20491;-62
2023/07/31 12:47:38;;;;;;;8.33;5.50;;;23.70;94.00;;;;;;4996505;28;20520;-64